Time;durP1;ratioP1;P1;durP2;ratioP2;P2;SDS_P1;SDS_P2;PMS_P1;PMS_P2;Temp;Humidity;BMP_temperature;BMP_pressure;BME280_temperature;BME280_humidity;BME280_pressure;Samples;Min_cycle;Max_cycle;Signal;HPM_P1;HPM_P2
2023/04/09 00:01:05;;;;;;;14.23;8.07;;;;;;;7.85;77.62;100077.72;3139222;28;20048;-66
2023/04/09 00:02:37;;;;;;;15.27;7.87;;;;;;;7.60;77.53;100043.00;3145402;28;20064;-66
2023/04/09 00:04:09;;;;;;;15.70;8.57;;;;;;;7.85;77.57;100085.47;3145455;28;20056;-66
2023/04/09 00:05:41;;;;;;;16.35;8.32;;;;;;;7.83;77.72;100097.63;3144848;28;20536;-66
2023/04/09 00:07:13;;;;;;;14.25;8.02;;;;;;;7.82;77.57;100085.56;3144680;28;20052;-66
2023/04/09 00:08:45;;;;;;;12.52;7.95;;;;;;;7.80;77.69;100094.28;3139457;28;20155;-66
2023/04/09 00:10:16;;;;;;;16.65;8.32;;;;;;;7.65;77.68;100073.09;3145169;28;20049;-65
2023/04/09 00:11:47;;;;;;;14.70;7.38;;;;;;;7.71;77.88;100092.81;3145127;28;20570;-67
2023/04/09 00:13:20;;;;;;;18.15;7.82;;;;;;;7.68;77.85;100098.09;3139289;28;20053;-65
2023/04/09 00:14:52;;;;;;;14.98;8.25;;;;;;;7.68;78.20;100098.09;3139566;28;20045;-65
2023/04/09 00:16:24;;;;;;;13.75;7.63;;;;;;;7.67;77.96;100101.56;3133115;28;20053;-68
2023/04/09 00:17:55;;;;;;;15.93;8.27;;;;;;;7.63;78.28;100100.81;3144506;28;20059;-67
2023/04/09 00:19:27;;;;;;;15.07;7.78;;;;;;;7.62;78.15;100100.84;3137698;28;20049;-66
2023/04/09 00:20:58;;;;;;;17.42;7.80;;;;;;;7.57;78.49;100089.75;3141958;28;20052;-67
2023/04/09 00:22:30;;;;;;;15.98;7.55;;;;;;;7.53;78.16;100086.41;3133633;28;20492;-67
2023/04/09 00:24:02;;;;;;;19.17;9.32;;;;;;;7.62;78.30;100108.63;3144724;28;20052;-66
2023/04/09 00:25:34;;;;;;;16.00;8.38;;;;;;;7.59;78.48;100108.72;3144777;28;20510;-66
2023/04/09 00:27:06;;;;;;;14.18;7.65;;;;;;;7.57;78.34;100111.34;3144713;28;20114;-66
2023/04/09 00:28:38;;;;;;;14.27;8.18;;;;;;;7.56;78.40;100103.63;3142588;28;20052;-68
2023/04/09 00:30:12;;;;;;;15.90;8.45;;;;;;;7.55;78.55;100102.78;3140011;28;20044;-67
2023/04/09 00:31:43;;;;;;;17.90;7.72;;;;;;;7.51;78.74;100104.59;3137781;28;20107;-65
2023/04/09 00:33:15;;;;;;;14.07;8.02;;;;;;;7.52;78.50;100108.03;3136728;28;20052;-65
2023/04/09 00:34:47;;;;;;;13.25;7.55;;;;;;;7.49;78.60;100103.78;3139282;28;20048;-66
2023/04/09 00:36:19;;;;;;;16.65;8.65;;;;;;;7.38;78.63;100092.88;3139482;28;20048;-66
2023/04/09 00:37:50;;;;;;;14.80;8.05;;;;;;;7.48;78.80;100106.41;3135898;28;20458;-66
2023/04/09 00:39:22;;;;;;;16.67;7.85;;;;;;;7.36;78.63;100086.03;3144871;28;20053;-66
2023/04/09 00:40:54;;;;;;;17.80;8.25;;;;;;;7.39;78.72;100102.31;3144942;28;20049;-65
2023/04/09 00:42:26;;;;;;;18.40;9.35;;;;;;;7.45;78.53;100120.31;3143361;28;20120;-66
2023/04/09 00:43:57;;;;;;;14.95;8.05;;;;;;;7.40;78.92;100114.41;3133197;28;20060;-66
2023/04/09 00:45:31;;;;;;;18.40;7.88;;;;;;;7.42;79.10;100116.94;3141273;28;20056;-66
2023/04/09 00:47:03;;;;;;;18.08;7.97;;;;;;;7.40;78.99;100121.34;3144457;28;20101;-66
2023/04/09 00:48:35;;;;;;;18.37;8.80;;;;;;;7.38;79.11;100117.94;3144152;28;20445;-66
2023/04/09 00:50:07;;;;;;;17.38;8.90;;;;;;;7.41;79.10;100123.03;3141855;28;20314;-66
2023/04/09 00:51:39;;;;;;;15.20;8.27;;;;;;;7.39;79.06;100119.63;3138610;28;20501;-66
2023/04/09 00:53:11;;;;;;;15.40;8.90;;;;;;;7.13;78.93;100082.31;3135893;28;20241;-65
2023/04/09 00:54:44;;;;;;;16.25;8.57;;;;;;;7.43;79.12;100123.84;3140720;28;20416;-67
2023/04/09 00:56:16;;;;;;;17.83;8.90;;;;;;;7.43;79.09;100123.84;3135017;28;20586;-69
2023/04/09 00:57:48;;;;;;;17.85;9.25;;;;;;;7.42;78.91;100129.91;3142907;28;20056;-68
2023/04/09 00:59:20;;;;;;;16.90;9.25;;;;;;;7.36;78.92;100110.19;3132411;28;20106;-68
2023/04/09 01:00:53;;;;;;;18.48;9.98;;;;;;;7.38;79.09;100118.78;3134266;28;20052;-67
2023/04/09 01:02:25;;;;;;;20.00;10.48;;;;;;;7.36;79.31;100123.13;3144251;28;20052;-67
2023/04/09 01:03:58;;;;;;;22.33;10.23;;;;;;;7.34;79.37;100116.31;3144444;28;20052;-68
2023/04/09 01:05:37;;;;;;;17.30;9.32;;;;;;;7.27;79.31;100113.03;3133034;28;20057;-67
2023/04/09 01:07:14;;;;;;;22.83;11.45;;;;;;;7.32;79.51;100123.28;3144084;28;20093;-70
2023/04/09 01:08:53;;;;;;;19.08;9.85;;;;;;;7.28;79.55;100125.94;3144402;28;20048;-67
2023/04/09 01:10:35;;;;;;;19.95;10.52;;;;;;;7.16;79.40;100104.69;3144084;28;20056;-68
2023/04/09 01:12:14;;;;;;;16.80;9.52;;;;;;;7.23;79.50;100116.59;3131547;28;20053;-67
2023/04/09 01:13:53;;;;;;;18.10;10.18;;;;;;;7.15;79.63;100103.84;3133535;28;20089;-67
2023/04/09 01:15:27;;;;;;;17.92;9.85;;;;;;;7.19;79.83;100118.41;3143840;28;20525;-70
2023/04/09 01:17:04;;;;;;;;;;;;;;;7.11;79.68;100112.59;3145286;28;20056;-65
2023/04/09 01:18:50;;;;;;;22.88;11.10;;;;;;;7.06;79.87;100115.28;3143256;28;19970;-65
2023/04/09 01:20:29;;;;;;;22.20;11.60;;;;;;;7.11;80.05;100120.34;3144025;28;20075;-67
2023/04/09 01:22:06;;;;;;;20.27;11.02;;;;;;;7.06;80.10;100110.09;3137498;28;20057;-66
2023/04/09 01:23:47;;;;;;;22.10;11.00;;;;;;;7.10;80.10;100115.19;3130889;28;20591;-67
2023/04/09 01:25:35;;;;;;;21.83;10.18;;;;;;;7.05;80.13;100111.00;3143900;28;20048;-67
2023/04/09 01:27:09;;;;;;;20.60;10.75;;;;;;;7.03;80.22;100109.34;3144313;28;20048;-66
2023/04/09 01:28:44;;;;;;;18.60;10.88;;;;;;;7.02;80.08;100107.66;3139850;28;20048;-66
2023/04/09 01:30:17;;;;;;;22.40;11.50;;;;;;;7.06;80.31;100111.84;3143910;28;20053;-67
2023/04/09 01:31:50;;;;;;;19.17;10.40;;;;;;;6.99;80.38;100107.72;3143815;28;20476;-67
2023/04/09 01:33:22;;;;;;;23.40;11.75;;;;;;;7.00;80.55;100112.84;3138391;28;20131;-65
2023/04/09 01:34:55;;;;;;;23.83;11.75;;;;;;;7.03;80.65;100122.28;3138852;28;20150;-67
2023/04/09 01:36:30;;;;;;;23.92;11.40;;;;;;;7.00;80.72;100119.78;3144073;28;20121;-66
2023/04/09 01:38:03;;;;;;;20.00;11.18;;;;;;;6.97;80.85;100114.66;3144108;28;20523;-69
2023/04/09 01:39:37;;;;;;;20.88;11.95;;;;;;;6.97;80.93;100114.66;3144232;28;20540;-71
2023/04/09 01:41:14;;;;;;;25.23;12.20;;;;;;;6.83;80.96;100091.72;3144036;28;20044;-68
2023/04/09 01:42:46;;;;;;;23.83;11.82;;;;;;;6.97;80.83;100110.34;3136380;28;20148;-70
2023/04/09 01:44:20;;;;;;;22.55;11.70;;;;;;;6.97;81.10;100119.84;3142141;28;20197;-70
2023/04/09 01:45:52;;;;;;;26.20;12.18;;;;;;;6.95;81.04;100122.50;3144154;28;20747;-66
2023/04/09 01:47:24;;;;;;;22.30;11.90;;;;;;;6.92;81.12;100119.97;3142762;28;20206;-68
2023/04/09 01:48:56;;;;;;;24.95;12.95;;;;;;;6.93;81.22;100124.25;3144304;28;20048;-68
2023/04/09 01:50:29;;;;;;;21.98;11.15;;;;;;;6.94;81.26;100125.94;3144195;28;20057;-70
2023/04/09 01:52:01;;;;;;;23.55;12.00;;;;;;;6.93;81.32;100132.03;3134157;28;20159;-69
2023/04/09 01:53:33;;;;;;;24.38;11.93;;;;;;;6.90;81.31;100124.34;3138095;28;20056;-68
2023/04/09 01:55:06;;;;;;;22.02;11.23;;;;;;;6.93;81.35;100128.59;3143763;28;20049;-68
2023/04/09 01:56:42;;;;;;;22.30;11.82;;;;;;;6.93;81.50;100126.84;3139401;28;20048;-66
2023/04/09 01:58:14;;;;;;;21.42;11.38;;;;;;;6.68;81.34;100097.28;3133713;28;20098;-67
2023/04/09 01:59:46;;;;;;;20.40;10.52;;;;;;;6.93;81.38;100126.00;3127171;28;20046;-66
2023/04/09 02:01:24;;;;;;;16.83;10.00;;;;;;;6.93;81.40;100128.59;3135085;28;20102;-65
2023/04/09 02:03:02;;;;;;;23.00;10.82;;;;;;;6.93;81.40;100123.41;3144026;28;20053;-64
2023/04/09 02:04:39;;;;;;;21.75;10.77;;;;;;;6.93;81.32;100126.84;3144458;28;20052;-68
2023/04/09 02:06:16;;;;;;;20.77;11.10;;;;;;;6.89;81.53;100133.00;3143614;28;20093;-67
2023/04/09 02:07:52;;;;;;;21.58;11.20;;;;;;;6.83;81.49;100121.06;3139696;28;20055;-66
2023/04/09 02:09:25;;;;;;;21.27;10.52;;;;;;;6.89;81.52;100132.13;3143879;28;20052;-66
2023/04/09 02:10:59;;;;;;;18.83;10.75;;;;;;;6.79;81.38;100115.97;3144437;28;20524;-69
2023/04/09 02:12:33;;;;;;;18.83;10.40;;;;;;;6.83;81.39;100127.94;3135361;28;20477;-64
2023/04/09 02:14:07;;;;;;;19.77;9.77;;;;;;;6.74;81.32;100120.41;3138243;28;20244;-64
2023/04/09 02:15:41;;;;;;;19.75;10.25;;;;;;;6.83;81.29;100133.13;3138214;28;20117;-64
2023/04/09 02:17:13;;;;;;;21.77;10.45;;;;;;;6.74;81.38;100120.41;3143945;28;20097;-65
2023/04/09 02:18:45;;;;;;;20.98;10.23;;;;;;;6.78;81.37;100132.41;3144145;28;20055;-66
2023/04/09 02:20:16;;;;;;;20.00;10.55;;;;;;;6.80;81.41;100131.50;3143839;28;20040;-66
2023/04/09 02:21:48;;;;;;;19.27;11.55;;;;;;;6.80;81.47;100143.56;3134991;28;20524;-66
2023/04/09 02:23:19;;;;;;;23.58;11.43;;;;;;;6.79;81.44;100144.47;3143969;28;20136;-67
2023/04/09 02:24:51;;;;;;;20.92;11.45;;;;;;;6.78;81.64;100140.19;3145108;28;20575;-66
2023/04/09 02:26:22;;;;;;;20.83;11.77;;;;;;;6.51;81.59;100100.28;3145435;28;20462;-67
2023/04/09 02:27:54;;;;;;;19.80;10.80;;;;;;;6.75;81.71;100142.84;3144220;28;20114;-67
2023/04/09 02:29:26;;;;;;;25.30;11.80;;;;;;;6.72;81.97;100143.75;3136295;28;20053;-66
2023/04/09 02:30:59;;;;;;;21.20;11.45;;;;;;;6.69;81.90;100135.22;3136858;28;20048;-64
2023/04/09 02:32:31;;;;;;;19.08;10.70;;;;;;;6.68;81.95;100139.53;3146473;28;20052;-64
2023/04/09 02:34:02;;;;;;;22.50;12.90;;;;;;;6.63;82.06;100128.47;3142810;28;20052;-64
2023/04/09 02:35:34;;;;;;;22.13;12.05;;;;;;;6.63;82.02;100133.63;3142689;28;20109;-64
2023/04/09 02:37:06;;;;;;;23.40;11.77;;;;;;;6.63;82.05;100135.38;3146154;28;20037;-64
2023/04/09 02:38:38;;;;;;;23.70;11.88;;;;;;;6.64;82.18;100137.91;3146018;28;20052;-64
2023/04/09 02:40:10;;;;;;;22.80;12.05;;;;;;;6.60;82.25;100137.13;3146406;28;20055;-65
2023/04/09 02:41:41;;;;;;;29.40;13.75;;;;;;;6.56;82.20;100132.91;3140163;28;20231;-65
2023/04/09 02:43:13;;;;;;;26.50;12.48;;;;;;;6.57;82.36;100136.38;3138538;28;20049;-65
2023/04/09 02:44:44;;;;;;;24.00;13.05;;;;;;;6.57;82.46;100142.38;3138639;28;20040;-64
2023/04/09 02:46:17;;;;;;;27.60;13.88;;;;;;;6.57;82.64;100147.56;3145521;28;20041;-65
2023/04/09 02:47:48;;;;;;;24.45;13.30;;;;;;;6.52;82.82;100144.22;3141885;28;20048;-65
2023/04/09 02:49:20;;;;;;;27.50;14.27;;;;;;;6.54;82.81;100137.28;3145817;28;20074;-64
2023/04/09 02:50:51;;;;;;;27.58;14.02;;;;;;;6.54;82.97;100137.28;3146468;28;20122;-64
2023/04/09 02:52:24;;;;;;;26.83;15.05;;;;;;;6.53;82.95;100137.31;3138193;28;20064;-64
2023/04/09 02:53:56;;;;;;;24.60;13.18;;;;;;;6.51;82.89;100142.53;3145856;28;20535;-64
2023/04/09 02:55:27;;;;;;;31.00;14.15;;;;;;;6.53;82.81;100138.16;3142515;28;20540;-64
2023/04/09 02:56:59;;;;;;;28.50;15.13;;;;;;;6.57;83.11;100136.38;3140694;28;20047;-65
2023/04/09 02:58:31;;;;;;;26.48;13.07;;;;;;;6.59;83.13;100135.41;3136992;28;20049;-65
2023/04/09 03:00:04;;;;;;;26.05;13.30;;;;;;;6.59;83.13;100140.59;3136405;28;20067;-64
2023/04/09 03:01:37;;;;;;;29.73;15.02;;;;;;;6.59;82.98;100144.91;3143135;28;20178;-66
2023/04/09 03:03:09;;;;;;;27.00;14.10;;;;;;;6.54;83.15;100139.03;3144178;28;20541;-65
2023/04/09 03:04:41;;;;;;;32.90;15.00;;;;;;;6.57;83.13;100146.72;3142071;28;20048;-64
2023/04/09 03:06:12;;;;;;;29.38;14.30;;;;;;;6.56;82.94;100145.84;3145522;28;20055;-66
2023/04/09 03:07:46;;;;;;;27.88;14.38;;;;;;;6.55;82.91;100138.97;3142541;28;20049;-66
2023/04/09 03:09:17;;;;;;;29.55;15.07;;;;;;;6.31;82.86;100103.31;3140131;28;20162;-67
2023/04/09 03:10:49;;;;;;;25.60;14.38;;;;;;;6.00;82.80;100041.94;3138848;28;20044;-68
2023/04/09 03:12:21;;;;;;;30.17;14.65;;;;;;;6.57;82.85;100137.22;3138367;28;20048;-66
2023/04/09 03:13:53;;;;;;;31.77;14.52;;;;;;;6.57;83.05;100131.19;3139842;28;20517;-65
2023/04/09 03:15:25;;;;;;;31.90;15.07;;;;;;;6.58;82.89;100133.72;3145866;28;20060;-66
2023/04/09 03:16:58;;;;;;;33.35;15.40;;;;;;;6.60;83.00;100138.88;3145860;28;20040;-67
2023/04/09 03:18:30;;;;;;;32.80;16.92;;;;;;;6.57;83.04;100139.78;3145587;28;20056;-67
2023/04/09 03:20:01;;;;;;;34.13;16.20;;;;;;;6.31;83.09;100087.81;3145641;28;20502;-67
2023/04/09 03:21:33;;;;;;;31.42;15.93;;;;;;;6.58;83.07;100138.06;3145533;28;20117;-66
2023/04/09 03:23:05;;;;;;;30.65;15.82;;;;;;;6.59;82.95;100139.75;3122920;28;20141;-66
2023/04/09 03:24:36;;;;;;;32.13;17.42;;;;;;;6.60;82.97;100138.88;3142155;28;20130;-67
2023/04/09 03:26:07;;;;;;;33.92;16.50;;;;;;;6.60;82.99;100144.91;3120846;28;20113;-67
2023/04/09 03:27:39;;;;;;;31.17;15.32;;;;;;;6.61;82.92;100144.00;3143647;28;20057;-67
2023/04/09 03:29:10;;;;;;;28.55;15.60;;;;;;;6.57;83.00;100134.63;3144068;28;20047;-66
2023/04/09 03:30:42;;;;;;;33.30;16.02;;;;;;;6.56;83.05;100138.06;3145330;28;20055;-68
2023/04/09 03:32:15;;;;;;;34.78;16.38;;;;;;;6.57;83.11;100132.03;3145057;28;20075;-67
2023/04/09 03:33:47;;;;;;;34.65;17.23;;;;;;;6.58;83.10;100145.81;3144151;28;20052;-65
2023/04/09 03:35:17;;;;;;;33.58;16.23;;;;;;;6.60;83.11;100144.06;3140327;28;20040;-65
2023/04/09 03:36:49;;;;;;;32.25;16.23;;;;;;;6.61;82.96;100143.16;3145442;28;20044;-65
2023/04/09 03:38:21;;;;;;;35.53;17.05;;;;;;;6.63;83.02;100138.81;3145394;28;20150;-65
2023/04/09 03:39:53;;;;;;;34.55;17.17;;;;;;;6.63;83.18;100141.41;3136069;28;20414;-65
2023/04/09 03:41:26;;;;;;;35.35;16.92;;;;;;;6.66;83.09;100149.09;3138106;28;20185;-65
2023/04/09 03:42:57;;;;;;;40.92;17.00;;;;;;;6.66;82.99;100149.09;3142491;28;20049;-65
2023/04/09 03:44:29;;;;;;;35.33;16.67;;;;;;;6.63;82.98;100135.38;3136746;28;20056;-66
2023/04/09 03:46:01;;;;;;;37.95;17.55;;;;;;;6.67;83.00;100143.00;3145615;28;20052;-66
2023/04/09 03:47:34;;;;;;;37.88;16.48;;;;;;;6.73;82.97;100155.81;3144957;28;20044;-66
2023/04/09 03:49:05;;;;;;;35.53;16.20;;;;;;;6.73;83.02;100153.22;3145452;28;20053;-64
2023/04/09 03:50:40;;;;;;;41.20;17.60;;;;;;;6.71;82.98;100149.81;3145233;28;20054;-66
2023/04/09 03:52:12;;;;;;;39.60;17.13;;;;;;;6.50;82.86;100114.09;3138941;28;20123;-69
2023/04/09 03:53:44;;;;;;;40.65;16.92;;;;;;;6.74;82.79;100154.06;3136183;28;20061;-64
2023/04/09 03:55:16;;;;;;;39.05;16.90;;;;;;;6.74;82.80;100154.06;3120795;28;20057;-66
2023/04/09 03:56:47;;;;;;;36.92;16.48;;;;;;;6.76;82.61;100152.28;3144534;28;20055;-68
2023/04/09 03:58:19;;;;;;;39.97;15.80;;;;;;;6.72;82.62;100154.13;3138999;28;20102;-65
2023/04/09 03:59:49;;;;;;;40.83;17.95;;;;;;;6.70;82.52;100158.47;3136737;28;20071;-67
2023/04/09 04:01:21;;;;;;;40.20;17.45;;;;;;;6.76;82.66;100157.47;3141905;28;20048;-67
2023/04/09 04:02:55;;;;;;;43.03;17.77;;;;;;;6.76;82.62;100168.66;3144091;28;20053;-65
2023/04/09 04:04:26;;;;;;;38.38;17.85;;;;;;;6.76;82.74;100162.66;3143072;28;20055;-64
2023/04/09 04:06:01;;;;;;;38.25;17.23;;;;;;;6.24;82.60;100076.75;3145009;28;20059;-63
2023/04/09 04:07:32;;;;;;;36.88;16.10;;;;;;;6.49;82.78;100133.09;3142112;28;20045;-64
2023/04/09 04:09:04;;;;;;;39.22;16.65;;;;;;;6.73;82.65;100168.75;3137602;28;20501;-64
2023/04/09 04:10:36;;;;;;;36.15;17.23;;;;;;;6.73;82.67;100170.50;3140814;28;20425;-64
2023/04/09 04:12:08;;;;;;;41.25;17.10;;;;;;;6.73;82.63;100167.91;3145328;28;20133;-65
2023/04/09 04:13:40;;;;;;;39.05;16.98;;;;;;;6.74;82.70;100170.44;3139434;28;20040;-64
2023/04/09 04:15:11;;;;;;;36.13;17.88;;;;;;;6.75;82.70;100168.72;3142415;28;20060;-64
2023/04/09 04:16:43;;;;;;;37.75;15.80;;;;;;;6.77;82.73;100172.09;3134094;28;20475;-65
2023/04/09 04:18:15;;;;;;;35.63;16.73;;;;;;;6.74;82.79;100162.66;3145179;28;20059;-64
2023/04/09 04:19:47;;;;;;;35.30;16.45;;;;;;;6.78;82.75;100168.66;3144935;28;20048;-64
2023/04/09 04:21:19;;;;;;;34.28;17.67;;;;;;;6.77;82.67;100166.94;3140822;28;20454;-64
2023/04/09 04:22:50;;;;;;;38.45;16.88;;;;;;;6.80;82.61;100177.22;3133280;28;20059;-64
2023/04/09 04:24:22;;;;;;;36.28;17.05;;;;;;;6.79;82.44;100178.09;3144067;28;20063;-66
2023/04/09 04:25:55;;;;;;;37.97;17.80;;;;;;;6.77;82.49;100177.28;3144942;28;20151;-64
2023/04/09 04:27:27;;;;;;;34.85;16.45;;;;;;;6.76;82.34;100173.00;3144693;28;20125;-65
2023/04/09 04:28:59;;;;;;;42.08;17.50;;;;;;;6.75;82.32;100173.91;3143095;28;20114;-65
2023/04/09 04:30:31;;;;;;;35.28;16.40;;;;;;;6.74;82.48;100178.19;3145128;28;20524;-65
2023/04/09 04:32:02;;;;;;;37.83;17.33;;;;;;;6.75;82.46;100176.50;3144324;28;20048;-64
2023/04/09 04:33:35;;;;;;;37.30;17.52;;;;;;;6.76;82.48;100178.19;3144784;28;20455;-63
2023/04/09 04:35:08;;;;;;;35.70;17.13;;;;;;;6.75;82.56;100176.50;3136219;28;20129;-64
2023/04/09 04:36:40;;;;;;;38.45;17.45;;;;;;;6.74;82.50;100174.75;3132577;28;20100;-64
2023/04/09 04:38:12;;;;;;;39.40;16.98;;;;;;;6.70;82.57;100171.41;3137465;28;20048;-66
2023/04/09 04:39:42;;;;;;;40.33;17.98;;;;;;;6.72;82.59;100185.16;3139459;28;20060;-65
2023/04/09 04:41:14;;;;;;;34.70;16.50;;;;;;;6.74;82.51;100185.97;3144741;28;20531;-65
2023/04/09 04:42:46;;;;;;;35.15;16.20;;;;;;;6.69;82.33;100181.81;3142954;28;20056;-65
2023/04/09 04:44:18;;;;;;;36.38;15.73;;;;;;;6.68;82.37;100180.09;3133722;28;20053;-65
2023/04/09 04:45:50;;;;;;;35.35;16.38;;;;;;;6.70;82.40;100183.50;3145016;28;20445;-66
2023/04/09 04:47:21;;;;;;;36.10;16.35;;;;;;;6.70;82.33;100183.50;3143534;28;20109;-64
2023/04/09 04:48:54;;;;;;;35.45;16.60;;;;;;;6.67;82.55;100186.16;3120341;28;20395;-65
2023/04/09 04:50:26;;;;;;;37.63;16.98;;;;;;;6.66;82.54;100184.47;3144167;28;20056;-65
2023/04/09 04:51:58;;;;;;;37.55;16.40;;;;;;;6.62;82.71;100178.50;3139413;28;20127;-65
2023/04/09 04:53:30;;;;;;;38.40;16.25;;;;;;;6.57;82.75;100176.03;3143229;28;20548;-66
2023/04/09 04:55:02;;;;;;;36.00;16.30;;;;;;;6.63;82.82;100176.78;3144719;28;20044;-66
2023/04/09 04:56:34;;;;;;;35.80;16.83;;;;;;;6.64;82.68;100183.66;3135149;28;20060;-65
2023/04/09 04:58:06;;;;;;;39.58;17.13;;;;;;;6.54;82.68;100165.75;3136618;28;20041;-65
2023/04/09 04:59:38;;;;;;;39.83;17.00;;;;;;;6.66;82.72;100189.66;3136811;28;20098;-65
2023/04/09 05:01:10;;;;;;;50.30;18.02;;;;;;;6.64;82.71;100183.66;3138993;28;20045;-67
2023/04/09 05:02:42;;;;;;;42.92;16.67;;;;;;;6.64;82.68;100184.50;3144768;28;20052;-67
2023/04/09 05:04:15;;;;;;;42.17;17.33;;;;;;;6.66;82.76;100189.66;3139705;28;20044;-66
2023/04/09 05:05:47;;;;;;;42.05;17.50;;;;;;;6.66;82.76;100187.06;3144239;28;20046;-66
2023/04/09 05:07:19;;;;;;;42.03;17.95;;;;;;;6.66;82.97;100194.81;3139635;28;20482;-65
2023/04/09 05:08:51;;;;;;;49.38;19.25;;;;;;;6.63;82.81;100184.53;3144276;28;20086;-65
2023/04/09 05:10:22;;;;;;;44.45;18.10;;;;;;;6.66;82.89;100187.91;3144464;28;20061;-65
2023/04/09 05:11:55;;;;;;;43.25;17.95;;;;;;;6.66;83.11;100179.28;3144668;28;20045;-67
2023/04/09 05:13:27;;;;;;;46.90;17.90;;;;;;;6.67;82.93;100191.34;3138421;28;20056;-66
2023/04/09 05:14:59;;;;;;;50.40;20.33;;;;;;;6.66;83.02;100187.06;3144679;28;20075;-66
2023/04/09 05:16:31;;;;;;;45.17;19.67;;;;;;;6.63;82.92;100181.97;3144414;28;20079;-65
2023/04/09 05:18:03;;;;;;;43.78;17.60;;;;;;;6.65;83.07;100185.34;3135866;28;20560;-66
2023/04/09 05:19:36;;;;;;;50.17;18.25;;;;;;;6.67;82.88;100186.16;3144170;28;20496;-66
2023/04/09 05:21:08;;;;;;;51.17;19.95;;;;;;;6.67;82.93;100180.97;3141722;28;20208;-66
2023/04/09 05:22:40;;;;;;;51.50;19.73;;;;;;;6.74;83.05;100188.56;3126429;28;20073;-66
2023/04/09 05:24:11;;;;;;;50.83;18.70;;;;;;;6.75;83.13;100181.66;3129656;28;20087;-65
2023/04/09 05:25:43;;;;;;;52.28;20.63;;;;;;;6.82;83.10;100183.22;3141305;28;20093;-69
2023/04/09 05:27:15;;;;;;;51.95;19.60;;;;;;;6.86;83.17;100186.56;3144127;28;20490;-68
2023/04/09 05:28:47;;;;;;;44.58;18.15;;;;;;;6.88;83.19;100192.56;3143092;28;20045;-68
2023/04/09 05:30:20;;;;;;;44.85;18.55;;;;;;;6.90;83.03;100177.88;3144233;28;20045;-67
2023/04/09 05:31:51;;;;;;;51.25;20.02;;;;;;;6.90;83.05;100181.28;3137721;28;20583;-68
2023/04/09 05:33:23;;;;;;;53.05;19.73;;;;;;;6.94;83.12;100176.88;3137968;28;20068;-69
2023/04/09 05:34:56;;;;;;;50.95;19.50;;;;;;;7.00;82.91;100187.94;3139756;28;20044;-67
2023/04/09 05:36:28;;;;;;;47.67;19.50;;;;;;;7.02;83.05;100188.75;3140425;28;20060;-67
2023/04/09 05:38:00;;;;;;;45.45;19.05;;;;;;;7.04;82.78;100189.59;3144256;28;20044;-67
2023/04/09 05:39:32;;;;;;;44.47;17.88;;;;;;;7.04;82.69;100194.78;3144180;28;20466;-66
2023/04/09 05:41:04;;;;;;;46.50;18.67;;;;;;;7.04;82.71;100196.50;3143588;28;20127;-66
2023/04/09 05:42:36;;;;;;;51.53;18.40;;;;;;;7.06;82.54;100187.78;3144194;28;20056;-68
2023/04/09 05:44:08;;;;;;;44.13;17.48;;;;;;;7.10;82.42;100190.31;3140348;28;20121;-66
2023/04/09 05:45:40;;;;;;;48.47;18.02;;;;;;;7.13;82.45;100198.00;3140023;28;20434;-65
2023/04/09 05:47:11;;;;;;;42.03;18.48;;;;;;;7.14;82.35;100197.13;3138851;28;20126;-65
2023/04/09 05:48:43;;;;;;;48.65;19.63;;;;;;;7.16;82.32;100193.63;3144190;28;20052;-67
2023/04/09 05:50:16;;;;;;;49.13;17.98;;;;;;;7.20;82.18;100192.63;3141514;28;20054;-66
2023/04/09 05:51:50;;;;;;;46.35;17.25;;;;;;;7.22;82.19;100192.63;3134802;28;20041;-64
2023/04/09 05:53:22;;;;;;;43.83;17.23;;;;;;;7.24;82.19;100203.75;3135823;28;20076;-65
2023/04/09 05:54:54;;;;;;;44.47;17.80;;;;;;;7.26;82.17;100199.41;3144417;28;20087;-64
2023/04/09 05:56:26;;;;;;;44.00;17.88;;;;;;;7.27;81.93;100211.47;3141401;28;20060;-64
2023/04/09 05:57:58;;;;;;;48.38;18.15;;;;;;;7.27;82.05;100211.47;3133464;28;20049;-66
2023/04/09 05:59:30;;;;;;;46.30;18.38;;;;;;;7.26;81.98;100208.03;3142990;28;20078;-67
2023/04/09 06:01:02;;;;;;;54.50;18.27;;;;;;;7.27;81.80;100211.47;3143795;28;20127;-68
2023/04/09 06:02:34;;;;;;;45.63;18.85;;;;;;;7.22;81.73;100208.16;3144344;28;20094;-66
2023/04/09 06:04:05;;;;;;;48.08;18.52;;;;;;;7.25;81.59;100213.25;3144112;28;20700;-65
2023/04/09 06:05:39;;;;;;;46.05;18.20;;;;;;;7.21;81.59;100204.69;3138517;28;20052;-69
2023/04/09 06:07:11;;;;;;;50.90;17.80;;;;;;;7.24;81.61;100203.75;3142689;28;20135;-72
2023/04/09 06:08:43;;;;;;;53.80;19.45;;;;;;;7.23;81.45;100208.09;3144263;28;20057;-69
2023/04/09 06:10:14;;;;;;;49.28;18.83;;;;;;;7.32;81.68;100219.97;3137748;28;20041;-66
2023/04/09 06:11:46;;;;;;;53.33;19.00;;;;;;;7.36;81.76;100216.41;3126368;28;20063;-68
2023/04/09 06:13:18;;;;;;;53.08;19.08;;;;;;;7.40;81.55;100212.88;3135456;28;20064;-68
2023/04/09 06:14:50;;;;;;;55.88;20.20;;;;;;;7.43;81.64;100211.94;3131991;28;20052;-66
2023/04/09 06:16:22;;;;;;;49.85;19.13;;;;;;;7.48;81.27;100210.94;3138926;28;20059;-66
2023/04/09 06:17:53;;;;;;;44.67;16.70;;;;;;;7.50;81.37;100216.91;3142600;28;20131;-66
2023/04/09 06:19:25;;;;;;;48.17;17.73;;;;;;;7.56;81.38;100215.06;3143588;28;20057;-68
2023/04/09 06:21:03;;;;;;;53.95;17.98;;;;;;;7.55;81.32;100206.44;3128997;28;20071;-70
2023/04/09 06:22:35;;;;;;;47.13;18.65;;;;;;;7.65;81.22;100212.22;3122743;28;20372;-69
2023/04/09 06:24:07;;;;;;;46.58;17.27;;;;;;;7.70;81.16;100212.97;3122573;28;20069;-69
2023/04/09 06:25:39;;;;;;;45.67;18.10;;;;;;;7.69;80.69;100201.75;3125531;28;20136;-69
2023/04/09 06:27:10;;;;;;;49.17;17.67;;;;;;;7.75;80.89;100208.50;3126903;28;20053;-72
2023/04/09 06:28:42;;;;;;;39.78;16.63;;;;;;;7.83;80.61;100211.72;3127625;28;20053;-69
2023/04/09 06:30:14;;;;;;;40.75;16.23;;;;;;;7.87;80.51;100213.34;3125197;28;20045;-72
2023/04/09 06:31:46;;;;;;;39.92;15.75;;;;;;;7.81;80.20;100195.38;3127717;28;20103;-76
2023/04/09 06:33:18;;;;;;;40.67;16.58;;;;;;;7.81;79.93;100190.19;3124293;28;20132;-75
2023/04/09 06:34:50;;;;;;;41.78;16.52;;;;;;;7.96;80.02;100205.31;3125613;28;20067;-71
2023/04/09 06:36:23;;;;;;;36.78;15.10;;;;;;;8.03;79.59;100208.56;3125771;28;20053;-72
2023/04/09 06:37:55;;;;;;;39.72;15.02;;;;;;;8.05;79.26;100219.78;3123839;28;20037;-69
2023/04/09 06:39:27;;;;;;;40.50;15.88;;;;;;;8.03;79.22;100207.75;3125526;28;20533;-69
2023/04/09 06:40:59;;;;;;;40.67;15.27;;;;;;;8.09;79.04;100210.16;3125433;28;20056;-74
2023/04/09 06:42:31;;;;;;;36.03;14.57;;;;;;;8.11;78.94;100211.81;3125432;28;20564;-71
2023/04/09 06:44:03;;;;;;;57.35;21.73;;;;;;;8.11;78.89;100201.44;3124227;28;20057;-71
2023/04/09 06:45:35;;;;;;;29.98;11.48;;;;;;;8.14;78.87;100205.69;3123659;28;20130;-67
2023/04/09 06:47:07;;;;;;;23.88;11.00;;;;;;;8.02;78.27;100198.25;3128370;28;20136;-66
2023/04/09 06:48:41;;;;;;;30.17;12.82;;;;;;;8.14;78.28;100216.06;3135063;28;20076;-67
2023/04/09 06:50:13;;;;;;;24.80;11.30;;;;;;;8.15;78.02;100213.41;3137676;28;20052;-66
2023/04/09 06:51:46;;;;;;;24.88;10.70;;;;;;;8.11;77.98;100195.41;3135619;28;20140;-66
2023/04/09 06:53:18;;;;;;;;;;;;;;;8.17;77.88;100213.38;3136192;28;20063;-65
2023/04/09 06:54:50;;;;;;;19.05;8.70;;;;;;;8.20;77.93;100216.75;3143229;28;20003;-68
2023/04/09 06:56:22;;;;;;;23.27;9.73;;;;;;;8.25;77.55;100218.34;3134439;28;20441;-68
2023/04/09 06:57:54;;;;;;;17.60;8.18;;;;;;;8.25;77.15;100223.53;3137907;28;20049;-68
2023/04/09 06:59:25;;;;;;;17.50;9.13;;;;;;;8.26;76.91;100225.25;3135126;28;20053;-68
2023/04/09 07:00:57;;;;;;;19.77;9.23;;;;;;;8.25;76.91;100214.00;3134978;28;20726;-69
2023/04/09 07:02:29;;;;;;;22.73;10.00;;;;;;;8.32;77.02;100225.91;3133718;28;20068;-68
2023/04/09 07:04:01;;;;;;;19.50;10.02;;;;;;;8.37;76.84;100224.03;3128348;28;20589;-66
2023/04/09 07:05:33;;;;;;;17.73;9.75;;;;;;;8.42;76.64;100224.75;3132961;28;20052;-69
2023/04/09 07:07:07;;;;;;;17.02;8.93;;;;;;;8.48;76.59;100225.50;3134033;28;20052;-68